Time;durP1;ratioP1;P1;durP2;ratioP2;P2;SDS_P1;SDS_P2;PMS_P1;PMS_P2;Temp;Humidity;BMP_temperature;BMP_pressure;BME280_temperature;BME280_humidity;BME280_pressure;Samples;Min_cycle;Max_cycle;Signal;HPM_P1;HPM_P2
2021/08/17 00:02:11;;;;;;;22.27;15.70;;;20.90;78.90;;;;;;5055137;28;20120;-74
2021/08/17 00:04:36;;;;;;;25.58;16.20;;;20.80;79.10;;;;;;5056473;28;20017;-74
2021/08/17 00:07:03;;;;;;;21.50;14.63;;;20.70;79.40;;;;;;5054718;28;20481;-74
2021/08/17 00:09:30;;;;;;;26.17;17.50;;;20.70;79.70;;;;;;5055949;28;20021;-74
2021/08/17 00:11:56;;;;;;;28.80;17.55;;;20.60;79.80;;;;;;5054769;28;20378;-74
2021/08/17 00:14:21;;;;;;;27.63;17.48;;;20.70;80.00;;;;;;5055146;28;20024;-74
2021/08/17 00:16:47;;;;;;;33.78;19.13;;;20.70;80.10;;;;;;5056361;28;20036;-74
2021/08/17 00:19:13;;;;;;;24.98;16.80;;;20.70;80.20;;;;;;5056271;28;20031;-74
2021/08/17 00:21:38;;;;;;;28.13;16.95;;;20.70;80.10;;;;;;5055987;28;20527;-74
2021/08/17 00:24:04;;;;;;;23.15;16.05;;;20.80;80.20;;;;;;5055886;28;20456;-74
2021/08/17 00:26:30;;;;;;;24.85;15.77;;;20.70;80.10;;;;;;5055697;28;20025;-74
2021/08/17 00:28:56;;;;;;;24.55;16.67;;;20.80;80.20;;;;;;5055681;28;20070;-74
2021/08/17 00:31:21;;;;;;;24.75;15.07;;;20.70;80.10;;;;;;5055671;28;20435;-74
2021/08/17 00:33:47;;;;;;;24.17;16.10;;;20.70;80.10;;;;;;5054516;28;20025;-74
2021/08/17 00:36:12;;;;;;;27.35;15.95;;;20.70;80.20;;;;;;5054859;28;20060;-74
2021/08/17 00:38:41;;;;;;;23.40;15.48;;;20.60;80.30;;;;;;5055030;28;20021;-75
2021/08/17 00:41:08;;;;;;;24.45;16.23;;;20.60;80.50;;;;;;5054785;28;20025;-74
2021/08/17 00:43:35;;;;;;;27.15;16.52;;;20.60;80.60;;;;;;5055580;28;20056;-74
2021/08/17 00:46:04;;;;;;;26.15;17.30;;;20.60;80.60;;;;;;5055697;28;20017;-74
2021/08/17 00:48:30;;;;;;;24.85;17.00;;;20.60;80.80;;;;;;5055419;28;20412;-74
2021/08/17 00:50:56;;;;;;;30.67;17.92;;;20.60;80.90;;;;;;5055259;28;20100;-75
2021/08/17 00:53:22;;;;;;;26.98;16.38;;;20.60;80.80;;;;;;5055624;28;20474;-74
2021/08/17 00:55:50;;;;;;;25.95;16.40;;;20.60;80.80;;;;;;5055664;28;20021;-74
2021/08/17 00:58:17;;;;;;;27.05;16.77;;;20.60;80.80;;;;;;5054348;28;20027;-74
2021/08/17 01:00:44;;;;;;;26.27;16.77;;;20.60;80.70;;;;;;5053926;28;20024;-74
2021/08/17 01:03:09;;;;;;;26.30;17.13;;;20.60;80.70;;;;;;5055197;28;20484;-74
2021/08/17 01:05:35;;;;;;;24.50;16.58;;;20.50;80.70;;;;;;5055173;28;20029;-75
2021/08/17 01:08:01;;;;;;;26.95;16.63;;;20.50;80.80;;;;;;5055342;28;20041;-76
2021/08/17 01:10:27;;;;;;;28.35;16.27;;;20.50;80.80;;;;;;5054946;28;20073;-75
2021/08/17 01:12:53;;;;;;;24.73;16.38;;;20.50;80.90;;;;;;5053869;28;20024;-75
2021/08/17 01:15:18;;;;;;;27.80;17.10;;;20.40;80.90;;;;;;5055039;28;20546;-76
2021/08/17 01:17:47;;;;;;;24.00;15.50;;;20.40;81.10;;;;;;5054839;28;20028;-76
2021/08/17 01:20:18;;;;;;;28.50;18.05;;;20.40;81.20;;;;;;5053901;28;20025;-76
2021/08/17 01:22:46;;;;;;;29.38;17.27;;;20.40;81.30;;;;;;5055349;28;20052;-76
2021/08/17 01:25:12;;;;;;;37.70;18.95;;;20.40;81.40;;;;;;5054440;28;20075;-76
2021/08/17 01:27:40;;;;;;;33.25;18.88;;;20.50;81.30;;;;;;5057202;28;20025;-75
2021/08/17 01:30:06;;;;;;;26.92;17.30;;;20.60;81.10;;;;;;5062735;28;20028;-76
2021/08/17 01:32:32;;;;;;;25.00;16.80;;;20.60;81.10;;;;;;5056678;28;20025;-75
2021/08/17 01:34:58;;;;;;;27.05;17.70;;;20.70;80.90;;;;;;5054325;28;20025;-74
2021/08/17 01:37:23;;;;;;;35.03;19.23;;;20.70;80.60;;;;;;5053030;28;20358;-74
2021/08/17 01:40:05;;;;;;;30.40;19.60;;;20.70;80.50;;;;;;5053342;28;20017;-71
2021/08/17 01:42:32;;;;;;;39.25;19.80;;;20.60;80.70;;;;;;5053553;28;20102;-74
2021/08/17 01:44:59;;;;;;;35.15;18.25;;;20.50;80.90;;;;;;5053170;28;20060;-74
2021/08/17 01:47:31;;;;;;;34.80;19.55;;;20.50;80.80;;;;;;5053938;28;20048;-75
2021/08/17 01:50:01;;;;;;;30.15;19.85;;;20.50;80.80;;;;;;5053381;28;20075;-74
2021/08/17 01:52:27;;;;;;;31.42;19.38;;;20.50;80.80;;;;;;5054180;28;20056;-75
2021/08/17 01:54:53;;;;;;;34.05;18.98;;;20.50;80.80;;;;;;5053103;28;20481;-75
2021/08/17 01:57:19;;;;;;;30.55;18.70;;;20.50;80.90;;;;;;5052959;28;20049;-75
2021/08/17 01:59:45;;;;;;;35.63;21.33;;;20.50;80.80;;;;;;5053867;28;20033;-75
2021/08/17 02:02:11;;;;;;;36.50;22.35;;;20.50;80.70;;;;;;5054176;28;20082;-75
2021/08/17 02:04:36;;;;;;;34.08;21.42;;;20.50;80.80;;;;;;5052757;28;20043;-75
2021/08/17 02:07:03;;;;;;;30.35;19.08;;;20.50;81.00;;;;;;5053954;28;20087;-75
2021/08/17 02:09:30;;;;;;;31.55;19.67;;;20.50;81.20;;;;;;5052769;28;20101;-75
2021/08/17 02:11:55;;;;;;;30.05;18.75;;;20.40;80.90;;;;;;5053712;28;20075;-75
2021/08/17 02:14:21;;;;;;;33.42;21.42;;;20.50;80.70;;;;;;5053560;28;20024;-75
2021/08/17 02:16:47;;;;;;;28.35;18.73;;;20.40;80.50;;;;;;5052490;28;20028;-75
2021/08/17 02:19:13;;;;;;;26.40;18.90;;;20.40;80.40;;;;;;5052943;28;20046;-75
2021/08/17 02:21:38;;;;;;;34.13;21.45;;;20.50;80.40;;;;;;5053765;28;20470;-75
2021/08/17 02:24:05;;;;;;;36.75;21.10;;;20.60;80.40;;;;;;5053773;28;20028;-75
2021/08/17 02:26:30;;;;;;;37.78;22.40;;;20.60;80.20;;;;;;5053772;28;20028;-75
2021/08/17 02:28:56;;;;;;;38.00;21.70;;;20.60;80.20;;;;;;5052177;28;20454;-74
2021/08/17 02:31:22;;;;;;;31.42;19.90;;;20.70;80.20;;;;;;5053664;28;20056;-75
2021/08/17 02:33:47;;;;;;;28.25;17.55;;;20.70;79.90;;;;;;5053516;28;20032;-74
2021/08/17 02:36:13;;;;;;;28.88;18.38;;;20.70;79.40;;;;;;5053714;28;20012;-75
2021/08/17 02:38:38;;;;;;;26.95;16.65;;;20.80;79.20;;;;;;5052236;28;20017;-75
2021/08/17 02:41:04;;;;;;;24.08;15.75;;;20.90;78.80;;;;;;5053436;28;20032;-74
2021/08/17 02:43:30;;;;;;;29.20;17.40;;;20.90;78.30;;;;;;5053873;28;20056;-74
2021/08/17 02:45:56;;;;;;;27.52;17.17;;;20.90;77.90;;;;;;5052928;28;20028;-74
2021/08/17 02:48:22;;;;;;;27.95;16.48;;;20.90;77.70;;;;;;5052244;28;20367;-74
2021/08/17 02:50:48;;;;;;;25.23;15.45;;;20.90;77.60;;;;;;5053644;28;20469;-74
2021/08/17 02:53:14;;;;;;;29.52;16.48;;;20.90;77.50;;;;;;5053981;28;20057;-74
2021/08/17 02:55:41;;;;;;;29.00;15.65;;;21.00;77.30;;;;;;5053219;28;20025;-74
2021/08/17 02:58:08;;;;;;;24.65;15.88;;;21.00;77.20;;;;;;5053937;28;20096;-74
2021/08/17 03:00:35;;;;;;;24.50;16.30;;;21.00;77.00;;;;;;5055325;28;20052;-75
2021/08/17 03:03:01;;;;;;;29.02;17.73;;;21.00;77.00;;;;;;5057553;28;20025;-75
2021/08/17 03:05:27;;;;;;;34.15;17.88;;;21.00;77.00;;;;;;5057504;28;20029;-74
2021/08/17 03:07:54;;;;;;;34.83;18.35;;;21.10;77.00;;;;;;5055962;28;20068;-74
2021/08/17 03:10:23;;;;;;;35.60;18.50;;;21.10;76.90;;;;;;5055845;28;20028;-74
2021/08/17 03:12:50;;;;;;;33.17;19.23;;;21.10;77.00;;;;;;5057092;28;20032;-75
2021/08/17 03:15:15;;;;;;;35.97;19.02;;;21.10;76.70;;;;;;5057527;28;20029;-74
2021/08/17 03:17:41;;;;;;;34.88;19.05;;;21.10;76.90;;;;;;5057170;28;20032;-74
2021/08/17 03:20:08;;;;;;;31.15;18.42;;;21.20;77.00;;;;;;5057259;28;20021;-74
2021/08/17 03:22:35;;;;;;;31.65;18.08;;;21.30;76.80;;;;;;5056943;28;20029;-74
2021/08/17 03:25:02;;;;;;;32.92;18.85;;;21.50;76.50;;;;;;5057432;28;20025;-74
2021/08/17 03:27:27;;;;;;;29.40;17.45;;;21.60;75.90;;;;;;5055280;28;20028;-75
2021/08/17 03:29:53;;;;;;;33.15;18.27;;;21.70;75.40;;;;;;5057092;28;20112;-74
2021/08/17 03:32:19;;;;;;;28.02;17.00;;;21.90;75.00;;;;;;5055410;28;20489;-74
2021/08/17 03:34:45;;;;;;;30.67;17.48;;;22.20;74.60;;;;;;5055393;28;20021;-74
2021/08/17 03:37:11;;;;;;;35.15;18.15;;;22.40;74.20;;;;;;5055178;28;20025;-76
2021/08/17 03:39:36;;;;;;;25.70;16.52;;;22.60;73.90;;;;;;5056047;28;20025;-73
2021/08/17 03:42:02;;;;;;;25.73;17.52;;;22.90;73.10;;;;;;5056451;28;20029;-82
2021/08/17 03:44:28;;;;;;;24.98;15.45;;;23.10;72.40;;;;;;5056717;28;20032;-71
2021/08/17 03:46:54;;;;;;;23.80;15.63;;;23.30;71.60;;;;;;5056453;28;20137;-72
2021/08/17 03:49:19;;;;;;;24.92;14.00;;;23.60;70.80;;;;;;5037395;28;20064;-72
2021/08/17 03:51:45;;;;;;;21.95;12.02;;;23.80;69.70;;;;;;5034496;28;20360;-73
2021/08/17 03:54:11;;;;;;;17.45;12.60;;;24.10;68.50;;;;;;5032046;28;20080;-73
2021/08/17 03:56:36;;;;;;;18.13;12.15;;;24.40;67.10;;;;;;5034997;28;20021;-73
2021/08/17 03:59:02;;;;;;;17.63;11.85;;;24.60;66.50;;;;;;5034015;28;20343;-73
2021/08/17 04:01:28;;;;;;;19.02;12.13;;;24.80;65.90;;;;;;5035502;28;20033;-73
2021/08/17 04:03:53;;;;;;;16.13;10.38;;;24.90;65.10;;;;;;5067508;28;20045;-72
2021/08/17 04:06:19;;;;;;;17.35;10.90;;;25.00;64.40;;;;;;5035729;28;20028;-72
2021/08/17 04:08:45;;;;;;;18.50;11.90;;;25.10;63.80;;;;;;5067486;28;20052;-73
2021/08/17 04:11:10;;;;;;;16.98;11.15;;;25.10;63.70;;;;;;5035907;28;20033;-73
2021/08/17 04:13:37;;;;;;;18.90;12.95;;;25.30;63.80;;;;;;5068072;28;20064;-73
2021/08/17 04:16:03;;;;;;;22.45;13.40;;;25.50;63.60;;;;;;5068296;28;20025;-73
2021/08/17 04:18:30;;;;;;;19.98;13.13;;;25.80;63.30;;;;;;5035097;28;20021;-73
2021/08/17 04:20:56;;;;;;;18.60;11.77;;;25.90;62.70;;;;;;5035125;28;20017;-73
2021/08/17 04:23:21;;;;;;;17.77;12.18;;;26.20;62.00;;;;;;5036281;28;20036;-72
2021/08/17 04:25:47;;;;;;;20.98;12.75;;;26.40;61.50;;;;;;5067740;28;20395;-71
2021/08/17 04:28:13;;;;;;;18.60;13.98;;;26.60;61.40;;;;;;5035880;28;20100;-72
2021/08/17 04:30:39;;;;;;;23.45;13.35;;;27.10;61.30;;;;;;5067865;28;20119;-72
2021/08/17 04:33:05;;;;;;;21.10;13.52;;;27.50;60.80;;;;;;5067524;28;20025;-72
2021/08/17 04:35:30;;;;;;;27.38;15.68;;;27.90;60.30;;;;;;5067472;28;20024;-72
2021/08/17 04:37:56;;;;;;;23.33;14.93;;;28.20;60.00;;;;;;5035380;28;20091;-72
2021/08/17 04:40:22;;;;;;;27.38;19.20;;;28.60;59.60;;;;;;5067161;28;20026;-72
2021/08/17 04:42:47;;;;;;;24.63;15.32;;;28.90;59.10;;;;;;5035954;28;20416;-72
2021/08/17 04:45:13;;;;;;;24.75;19.20;;;29.20;58.50;;;;;;5067351;28;20022;-72
2021/08/17 04:47:50;;;;;;;16.77;11.55;;;29.50;57.60;;;;;;5035709;28;20028;-74
2021/08/17 04:50:17;;;;;;;18.45;11.30;;;29.80;56.30;;;;;;5067432;28;20064;-72
2021/08/17 04:52:42;;;;;;;16.88;10.77;;;29.90;55.90;;;;;;5035197;28;20121;-82
2021/08/17 04:55:09;;;;;;;21.95;10.02;;;30.00;56.00;;;;;;5035346;28;20465;-76
2021/08/17 04:57:47;;;;;;;19.08;9.43;;;30.10;55.60;;;;;;5067270;28;20021;-83
2021/08/17 05:00:14;;;;;;;13.95;9.43;;;30.40;55.50;;;;;;5035519;28;20022;-75
2021/08/17 05:02:39;;;;;;;14.77;10.45;;;30.60;54.70;;;;;;5035268;28;20410;-78
2021/08/17 05:05:05;;;;;;;15.48;9.55;;;30.70;54.60;;;;;;5033710;28;20108;-80
2021/08/17 05:07:31;;;;;;;16.17;10.15;;;30.80;54.20;;;;;;5034900;28;20042;-77
2021/08/17 05:09:58;;;;;;;14.13;10.02;;;30.90;53.90;;;;;;5067318;28;20029;-81
2021/08/17 05:12:24;;;;;;;13.27;10.30;;;31.00;53.70;;;;;;5035081;28;20086;-78
2021/08/17 05:14:49;;;;;;;18.35;11.40;;;31.10;53.80;;;;;;5034741;28;20029;-77
2021/08/17 05:17:15;;;;;;;15.40;10.90;;;31.20;53.80;;;;;;5034720;28;20394;-70
2021/08/17 05:19:41;;;;;;;15.15;10.88;;;31.50;53.50;;;;;;5035108;28;20021;-80
2021/08/17 05:22:06;;;;;;;14.00;10.40;;;31.80;52.80;;;;;;5066857;28;20068;-77
2021/08/17 05:24:32;;;;;;;14.73;10.13;;;31.90;52.40;;;;;;5033523;28;20029;-77
2021/08/17 05:26:58;;;;;;;19.42;10.90;;;32.10;52.20;;;;;;5028064;28;20030;-77
2021/08/17 05:29:23;;;;;;;15.85;10.30;;;32.40;51.80;;;;;;5033969;28;20024;-77
2021/08/17 05:31:49;;;;;;;16.45;10.45;;;32.70;51.60;;;;;;5033833;28;20103;-77
2021/08/17 05:34:14;;;;;;;17.15;10.32;;;32.90;51.00;;;;;;5032401;28;20033;-78
2021/08/17 05:36:40;;;;;;;21.00;10.70;;;33.10;50.60;;;;;;5032653;28;20387;-76
2021/08/17 05:39:06;;;;;;;17.15;9.90;;;33.40;50.70;;;;;;5032341;28;20108;-76
2021/08/17 05:41:31;;;;;;;13.35;9.55;;;33.60;50.40;;;;;;5034183;28;20026;-77
2021/08/17 05:43:57;;;;;;;13.93;9.88;;;33.90;49.80;;;;;;5032747;28;20428;-76
2021/08/17 05:46:23;;;;;;;17.08;9.15;;;34.20;48.90;;;;;;5032655;28;20044;-76
2021/08/17 05:48:48;;;;;;;12.77;8.20;;;34.30;48.20;;;;;;5034390;28;20075;-75
2021/08/17 05:51:14;;;;;;;12.05;7.65;;;34.50;47.40;;;;;;5035327;28;20491;-76
2021/08/17 05:53:40;;;;;;;13.18;8.18;;;34.40;47.20;;;;;;5044741;28;20025;-74
2021/08/17 05:56:06;;;;;;;12.90;7.68;;;34.40;46.70;;;;;;5039476;28;20720;-77
2021/08/17 05:58:34;;;;;;;16.52;7.40;;;34.30;46.10;;;;;;5036102;28;20017;-77
2021/08/17 06:01:01;;;;;;;15.95;7.80;;;34.20;46.70;;;;;;5033174;28;20022;-75
2021/08/17 06:03:26;;;;;;;9.93;7.03;;;34.30;47.20;;;;;;5033361;28;20029;-75
2021/08/17 06:05:56;;;;;;;11.90;7.15;;;34.70;46.90;;;;;;5032391;28;20022;-74
2021/08/17 06:08:22;;;;;;;16.00;6.78;;;35.00;46.20;;;;;;5033931;28;20037;-75
2021/08/17 06:10:48;;;;;;;15.27;6.78;;;35.00;45.20;;;;;;5033521;28;20353;-74
2021/08/17 06:13:14;;;;;;;10.40;7.05;;;35.10;45.10;;;;;;5034126;28;20333;-75
2021/08/17 06:15:39;;;;;;;9.95;6.80;;;35.00;45.10;;;;;;5033573;28;20021;-75
2021/08/17 06:18:05;;;;;;;11.10;6.05;;;34.90;45.20;;;;;;5033604;28;20387;-74
2021/08/17 06:20:32;;;;;;;14.20;6.22;;;35.10;45.30;;;;;;5033948;28;20021;-74
2021/08/17 06:22:58;;;;;;;12.50;7.18;;;35.30;44.80;;;;;;5034257;28;20510;-74
2021/08/17 06:25:24;;;;;;;9.30;6.15;;;35.70;44.80;;;;;;5033958;28;20026;-74
2021/08/17 06:27:50;;;;;;;13.82;5.88;;;35.90;43.20;;;;;;5034061;28;20029;-74
2021/08/17 06:30:15;;;;;;;20.27;6.88;;;35.90;43.70;;;;;;5033900;28;20017;-75
2021/08/17 06:32:41;;;;;;;13.02;6.25;;;36.00;43.50;;;;;;5032796;28;20038;-75
2021/08/17 06:35:07;;;;;;;16.67;6.50;;;36.30;42.90;;;;;;5033031;28;20053;-75
2021/08/17 06:37:33;;;;;;;10.55;5.57;;;36.40;42.50;;;;;;5033898;28;20021;-75
2021/08/17 06:39:58;;;;;;;9.30;5.38;;;36.40;41.50;;;;;;5033576;28;20029;-75
2021/08/17 06:42:24;;;;;;;11.52;5.40;;;36.50;41.50;;;;;;5033698;28;20034;-74
2021/08/17 06:44:50;;;;;;;14.77;5.40;;;36.70;41.10;;;;;;5033957;28;20414;-74
2021/08/17 06:47:15;;;;;;;10.75;5.45;;;36.80;40.50;;;;;;5033448;28;20096;-74
2021/08/17 06:49:41;;;;;;;10.98;5.40;;;36.90;40.60;;;;;;5033694;28;20018;-75
2021/08/17 06:52:07;;;;;;;9.63;5.30;;;37.00;40.80;;;;;;5033560;28;20030;-74
2021/08/17 06:54:33;;;;;;;10.05;5.95;;;37.20;40.40;;;;;;5032068;28;20030;-74
2021/08/17 06:56:58;;;;;;;10.85;5.90;;;37.20;40.00;;;;;;5033683;28;20026;-74
2021/08/17 06:59:24;;;;;;;9.75;5.53;;;37.20;39.50;;;;;;5033620;28;20451;-74
2021/08/17 07:01:50;;;;;;;10.60;5.55;;;37.10;39.50;;;;;;5031832;28;20030;-75
2021/08/17 07:04:15;;;;;;;10.00;5.60;;;37.20;39.30;;;;;;5033164;28;20018;-75
2021/08/17 07:06:41;;;;;;;9.52;4.95;;;37.40;39.10;;;;;;5032062;28;20032;-78
2021/08/17 07:09:07;;;;;;;10.20;4.65;;;37.40;38.60;;;;;;5032270;28;20021;-74
2021/08/17 07:11:32;;;;;;;9.75;4.90;;;37.50;37.80;;;;;;5033482;28;20025;-74
2021/08/17 07:13:58;;;;;;;11.55;5.13;;;37.30;37.80;;;;;;5033459;28;20026;-74
2021/08/17 07:16:24;;;;;;;6.35;4.65;;;37.20;37.50;;;;;;5031885;28;20025;-74
2021/08/17 07:18:49;;;;;;;12.23;5.15;;;37.10;37.40;;;;;;5033163;28;20025;-74
2021/08/17 07:21:15;;;;;;;14.95;5.13;;;37.20;38.10;;;;;;5033492;28;20104;-74
2021/08/17 07:23:41;;;;;;;9.70;4.72;;;37.50;38.40;;;;;;5033679;28;20061;-74
2021/08/17 07:26:07;;;;;;;10.32;4.38;;;37.80;38.30;;;;;;5033890;28;20028;-73
2021/08/17 07:28:32;;;;;;;7.55;4.78;;;38.10;37.70;;;;;;5032648;28;20032;-74
2021/08/17 07:30:58;;;;;;;6.75;4.25;;;38.20;37.20;;;;;;5032498;28;20394;-74
2021/08/17 07:33:24;;;;;;;7.35;4.40;;;38.10;36.60;;;;;;5033363;28;20045;-74
2021/08/17 07:35:50;;;;;;;8.93;4.40;;;37.90;36.30;;;;;;5032344;28;20356;-74
2021/08/17 07:38:16;;;;;;;8.23;4.47;;;37.80;35.90;;;;;;5031683;28;20087;-73
2021/08/17 07:40:42;;;;;;;9.50;4.28;;;37.70;35.80;;;;;;5033328;28;20033;-74
2021/08/17 07:43:08;;;;;;;8.90;4.10;;;37.60;36.40;;;;;;5032174;28;20033;-74
2021/08/17 07:45:34;;;;;;;6.38;3.55;;;37.80;36.60;;;;;;5031746;28;20018;-74
2021/08/17 07:47:59;;;;;;;9.82;4.18;;;37.70;36.20;;;;;;5035471;28;20021;-74
2021/08/17 07:50:25;;;;;;;7.90;4.38;;;37.60;36.50;;;;;;5068771;28;20022;-74
2021/08/17 07:52:51;;;;;;;7.15;4.43;;;37.30;36.60;;;;;;5037010;28;20360;-73
2021/08/17 07:55:17;;;;;;;9.40;4.00;;;37.30;36.80;;;;;;5036248;28;20115;-74
2021/08/17 07:57:43;;;;;;;9.27;4.25;;;37.20;36.70;;;;;;5036611;28;20138;-74
2021/08/17 08:00:12;;;;;;;6.72;4.28;;;37.50;37.20;;;;;;5035313;28;20017;-74
2021/08/17 08:02:38;;;;;;;7.32;4.10;;;37.70;36.90;;;;;;5036542;28;20124;-74
2021/08/17 08:05:05;;;;;;;6.82;4.57;;;37.80;36.20;;;;;;5035299;28;20079;-74
2021/08/17 08:07:30;;;;;;;9.27;4.20;;;37.50;36.10;;;;;;5034772;28;20049;-74
2021/08/17 08:09:56;;;;;;;7.40;4.20;;;37.50;35.80;;;;;;5036362;28;20022;-74
2021/08/17 08:12:22;;;;;;;10.00;4.22;;;37.40;35.80;;;;;;5035979;28;20029;-74
2021/08/17 08:14:48;;;;;;;8.85;4.30;;;37.50;36.50;;;;;;5036124;28;20025;-74
2021/08/17 08:17:13;;;;;;;9.13;4.75;;;37.40;36.30;;;;;;5036041;28;20030;-74
2021/08/17 08:19:41;;;;;;;6.95;4.05;;;37.30;36.50;;;;;;5035922;28;20017;-74
2021/08/17 08:22:07;;;;;;;6.88;4.40;;;37.30;36.80;;;;;;5035243;28;20410;-74
2021/08/17 08:24:34;;;;;;;6.93;4.40;;;37.40;36.30;;;;;;5036113;28;20025;-75
2021/08/17 08:26:59;;;;;;;8.48;3.85;;;37.40;36.50;;;;;;5036261;28;20513;-75
2021/08/17 08:29:26;;;;;;;6.88;4.30;;;37.50;36.20;;;;;;5036062;28;20021;-74
2021/08/17 08:31:51;;;;;;;6.68;4.45;;;37.50;36.40;;;;;;5034620;28;20026;-74
2021/08/17 08:34:17;;;;;;;7.93;4.38;;;37.60;36.70;;;;;;5036519;28;20021;-74
2021/08/17 08:36:43;;;;;;;7.25;4.25;;;37.70;36.30;;;;;;5035910;28;20021;-75
2021/08/17 08:39:09;;;;;;;8.82;4.38;;;37.60;36.40;;;;;;5034614;28;20028;-75
2021/08/17 08:41:35;;;;;;;7.82;3.78;;;37.70;36.40;;;;;;5035137;28;20030;-75
2021/08/17 08:44:01;;;;;;;9.52;4.30;;;37.90;36.70;;;;;;5035759;28;20025;-75
2021/08/17 08:46:30;;;;;;;7.40;4.43;;;38.00;36.60;;;;;;5034490;28;20430;-74
2021/08/17 08:48:56;;;;;;;10.13;4.15;;;38.20;36.60;;;;;;5034450;28;20017;-74
2021/08/17 08:51:22;;;;;;;6.90;3.90;;;38.50;36.30;;;;;;5035625;28;20036;-74
2021/08/17 08:53:49;;;;;;;5.90;4.05;;;38.60;35.90;;;;;;5034918;28;20439;-73
2021/08/17 08:56:15;;;;;;;6.43;4.07;;;38.80;35.70;;;;;;5035453;28;20464;-74
2021/08/17 08:58:41;;;;;;;7.55;4.75;;;38.70;35.40;;;;;;5035296;28;20022;-74
2021/08/17 09:01:12;;;;;;;9.43;4.57;;;38.40;35.40;;;;;;5035507;28;20033;-73
2021/08/17 09:03:50;;;;;;;9.07;4.47;;;38.30;35.80;;;;;;5034299;28;20021;-73
2021/08/17 09:06:24;;;;;;;7.65;4.75;;;38.20;35.60;;;;;;5035473;28;20025;-73
2021/08/17 09:09:18;;;;;;;7.68;4.78;;;38.10;35.60;;;;;;5034777;28;20049;-75
2021/08/17 09:11:52;;;;;;;12.60;4.57;;;38.00;36.10;;;;;;5033934;28;20043;-74
2021/08/17 09:14:22;;;;;;;10.07;4.80;;;37.90;36.60;;;;;;5035567;28;20112;-76
2021/08/17 09:16:54;;;;;;;9.63;5.10;;;37.90;36.10;;;;;;5035016;28;20028;-75
2021/08/17 09:19:41;;;;;;;8.05;4.55;;;37.80;35.80;;;;;;5033903;28;20021;-76
2021/08/17 09:22:15;;;;;;;8.40;5.57;;;37.80;36.10;;;;;;5035175;28;20025;-76
2021/08/17 09:24:44;;;;;;;8.18;5.80;;;37.90;36.30;;;;;;5033595;28;20033;-75
2021/08/17 09:27:18;;;;;;;9.13;5.57;;;38.00;36.40;;;;;;5033753;28;20124;-75
2021/08/17 09:29:52;;;;;;;11.80;5.18;;;38.00;36.40;;;;;;5034669;28;20049;-76
2021/08/17 09:32:24;;;;;;;11.73;5.43;;;38.10;35.80;;;;;;5034837;28;20351;-75
2021/08/17 09:34:56;;;;;;;9.13;5.05;;;38.20;36.20;;;;;;5034584;28;20036;-76
2021/08/17 09:37:27;;;;;;;7.95;5.30;;;38.20;35.90;;;;;;5030624;28;20349;-75
2021/08/17 09:39:54;;;;;;;9.43;4.97;;;38.20;35.80;;;;;;5034719;28;20021;-75
2021/08/17 09:42:23;;;;;;;8.98;4.85;;;38.30;35.80;;;;;;5034716;28;20028;-75
2021/08/17 09:45:11;;;;;;;9.10;5.22;;;38.60;36.20;;;;;;5033535;28;20022;-75
2021/08/17 09:47:53;;;;;;;8.48;4.75;;;38.70;35.90;;;;;;5034821;28;20495;-76
2021/08/17 09:50:22;;;;;;;9.80;5.22;;;39.00;36.10;;;;;;5034813;28;20026;-76
2021/08/17 09:52:49;;;;;;;9.00;4.78;;;39.20;35.80;;;;;;5033046;28;20468;-76
2021/08/17 09:55:21;;;;;;;9.82;4.68;;;39.20;35.20;;;;;;5034558;28;20048;-76
2021/08/17 09:57:48;;;;;;;7.70;4.80;;;38.90;34.90;;;;;;5035094;28;20017;-76
2021/08/17 10:00:16;;;;;;;7.32;4.68;;;38.70;35.20;;;;;;5033264;28;20049;-76
2021/08/17 10:02:44;;;;;;;7.18;4.40;;;38.60;35.30;;;;;;5034409;28;20056;-76
2021/08/17 10:05:13;;;;;;;8.90;5.03;;;38.40;35.60;;;;;;5032753;28;20448;-76
2021/08/17 10:07:39;;;;;;;9.98;4.82;;;38.40;36.00;;;;;;5034175;28;20037;-76
2021/08/17 10:10:07;;;;;;;8.82;5.68;;;38.40;35.40;;;;;;5032866;28;20052;-76
2021/08/17 10:12:32;;;;;;;8.75;6.47;;;38.30;35.80;;;;;;5034238;28;20355;-76
2021/08/17 10:14:58;;;;;;;11.52;5.30;;;38.30;35.70;;;;;;5034115;28;20021;-76
2021/08/17 10:17:24;;;;;;;8.32;5.22;;;38.40;35.90;;;;;;5033006;28;20187;-76
2021/08/17 10:19:51;;;;;;;8.50;5.03;;;38.40;35.60;;;;;;5034518;28;20040;-76
2021/08/17 10:22:19;;;;;;;7.55;4.78;;;38.50;35.50;;;;;;5034474;28;20025;-76
2021/08/17 10:24:48;;;;;;;8.38;5.10;;;38.50;35.40;;;;;;5034208;28;20467;-76
2021/08/17 10:27:24;;;;;;;9.30;4.78;;;38.40;35.30;;;;;;5035605;28;20097;-76
2021/08/17 10:30:02;;;;;;;9.38;4.65;;;38.50;35.50;;;;;;5038662;28;20022;-76
2021/08/17 10:32:40;;;;;;;8.18;4.80;;;38.60;35.20;;;;;;5033529;28;20029;-75
2021/08/17 10:35:07;;;;;;;8.02;4.80;;;38.70;35.30;;;;;;5033828;28;20021;-76
2021/08/17 10:37:35;;;;;;;6.82;4.40;;;38.90;35.90;;;;;;5032453;28;20463;-75
2021/08/17 10:40:02;;;;;;;11.10;4.43;;;39.20;35.90;;;;;;5033592;28;20307;-76
2021/08/17 10:42:27;;;;;;;7.72;4.50;;;39.30;35.50;;;;;;5032235;28;20038;-75
2021/08/17 10:45:14;;;;;;;8.15;4.15;;;39.40;34.70;;;;;;5033939;28;20029;-75
2021/08/17 10:47:40;;;;;;;6.32;4.53;;;39.20;34.50;;;;;;5032153;28;20025;-76
2021/08/17 10:50:06;;;;;;;8.52;4.93;;;39.30;34.60;;;;;;5032540;28;20112;-75
2021/08/17 10:52:38;;;;;;;7.40;4.07;;;39.40;34.60;;;;;;5032404;28;20029;-75
2021/08/17 10:55:25;;;;;;;6.25;4.05;;;39.60;34.40;;;;;;5032645;28;20029;-76
2021/08/17 10:58:00;;;;;;;7.85;4.43;;;39.20;33.80;;;;;;5032338;28;20371;-76
2021/08/17 11:00:45;;;;;;;7.80;4.30;;;39.10;34.40;;;;;;5033986;28;20021;-76
2021/08/17 11:03:11;;;;;;;8.27;4.90;;;38.90;34.30;;;;;;5033805;28;20112;-76
2021/08/17 11:05:52;;;;;;;7.78;4.20;;;38.70;34.70;;;;;;5032140;28;20029;-76
2021/08/17 11:08:33;;;;;;;10.77;4.68;;;38.50;34.50;;;;;;5033578;28;20061;-76
2021/08/17 11:11:00;;;;;;;8.73;4.65;;;38.40;35.10;;;;;;5032435;28;20014;-75
2021/08/17 11:13:26;;;;;;;6.95;4.60;;;38.50;35.60;;;;;;5033525;28;20408;-75
2021/08/17 11:16:08;;;;;;;9.90;4.72;;;38.50;35.50;;;;;;5033170;28;20455;-76
2021/08/17 11:18:57;;;;;;;5.72;3.97;;;38.60;35.40;;;;;;5032552;28;20403;-77
2021/08/17 11:21:39;;;;;;;10.18;4.65;;;38.80;35.00;;;;;;5034799;28;20056;-76
2021/08/17 11:24:06;;;;;;;8.27;5.18;;;38.80;35.20;;;;;;5036991;28;20029;-76
2021/08/17 11:26:32;;;;;;;9.57;5.30;;;38.60;35.30;;;;;;5037195;28;20056;-76
2021/08/17 11:28:57;;;;;;;6.70;4.80;;;38.60;35.40;;;;;;5035797;28;20048;-76
2021/08/17 11:31:23;;;;;;;9.77;4.70;;;38.60;35.60;;;;;;5037040;28;20029;-76
2021/08/17 11:33:48;;;;;;;8.40;4.88;;;38.60;35.50;;;;;;5035573;28;20112;-75
2021/08/17 11:36:24;;;;;;;7.63;4.85;;;38.50;35.30;;;;;;5037122;28;20040;-76
2021/08/17 11:38:50;;;;;;;9.25;4.95;;;38.20;36.00;;;;;;5035530;28;20022;-77
2021/08/17 11:41:29;;;;;;;8.05;4.45;;;37.60;36.50;;;;;;5035400;28;20028;-76
2021/08/17 11:44:12;;;;;;;9.80;4.75;;;36.80;36.60;;;;;;5037007;28;20132;-76
2021/08/17 11:46:37;;;;;;;9.90;5.00;;;36.10;37.30;;;;;;5036871;28;20014;-75
2021/08/17 11:49:24;;;;;;;11.48;5.10;;;35.60;38.30;;;;;;5036939;28;20036;-75
2021/08/17 11:52:01;;;;;;;8.65;4.65;;;35.10;38.70;;;;;;5036991;28;20471;-76
2021/08/17 11:54:26;;;;;;;8.13;5.28;;;34.70;39.10;;;;;;5037153;28;20018;-75
2021/08/17 11:57:00;;;;;;;9.52;5.10;;;34.40;39.60;;;;;;5039020;28;20017;-75
2021/08/17 11:59:39;;;;;;;8.00;4.90;;;34.10;40.00;;;;;;5038197;28;20096;-75
2021/08/17 12:02:06;;;;;;;8.23;4.47;;;34.00;40.50;;;;;;5036965;28;20026;-76
2021/08/17 12:04:32;;;;;;;7.57;5.43;;;33.90;40.50;;;;;;5036608;28;20397;-76
2021/08/17 12:07:08;;;;;;;7.43;4.10;;;33.80;40.40;;;;;;5035017;28;20107;-76
2021/08/17 12:09:45;;;;;;;8.95;5.25;;;33.80;40.80;;;;;;5035407;28;20431;-75
2021/08/17 12:12:13;;;;;;;11.55;4.70;;;33.70;40.90;;;;;;5036223;28;20072;-76
2021/08/17 12:14:40;;;;;;;11.45;5.20;;;33.80;41.20;;;;;;5034729;28;20482;-75
2021/08/17 12:17:11;;;;;;;8.13;4.53;;;33.70;41.20;;;;;;5036201;28;20100;-75
2021/08/17 12:19:45;;;;;;;9.23;4.75;;;33.60;41.90;;;;;;5036483;28;20031;-75
2021/08/17 12:22:28;;;;;;;7.25;4.60;;;33.50;41.80;;;;;;5036427;28;20029;-75
2021/08/17 12:24:55;;;;;;;7.80;4.95;;;33.50;41.40;;;;;;5034777;28;20022;-75
2021/08/17 12:27:29;;;;;;;8.32;5.00;;;33.50;41.50;;;;;;5036056;28;20032;-75
2021/08/17 12:29:56;;;;;;;10.18;5.20;;;33.50;41.60;;;;;;5035856;28;20025;-75
2021/08/17 12:32:31;;;;;;;8.07;5.13;;;33.50;41.80;;;;;;5034753;28;20099;-75
2021/08/17 12:35:05;;;;;;;13.85;5.53;;;33.50;41.60;;;;;;5036095;28;20108;-75
2021/08/17 12:37:37;;;;;;;15.35;5.72;;;33.40;42.10;;;;;;5035553;28;20022;-76
2021/08/17 12:40:06;;;;;;;11.77;5.53;;;33.40;42.20;;;;;;5036153;28;20104;-76